Wrightstown, Wisconsin
Current Conditions -  °F | °C
As of 3:02 PM on Wednesday 26 Nov 2014 (Local Time) from KGRB Reporting Station
Haze Haze  
Wind Chill: -8°   Ceiling: Unl
Heat Index: -4°   Visibility: 6mi
Dew Point: -8°   Wind: 6mph
Humidity: 77%   Direction: 320°NW
Pressure: 30.17"   Gusts: NA
Location:  44.33°N, 88.16°W
Report Text: KGRB 262102Z 32005KT 6SM HZ SCT015 M04/M08 A3017 RMK AO2 T10441078
Loading
Personal Weather Stations






























Interactive Weather Map New forecast layout! Learn more

10-Day Weather Forecast

Advertisements
Track Severe Weather on mobile